• Join FlightAware (Why Join?)
  • Login
  • US Flag 
10:51PM EDT


 

Airport Tracker/Info


-or-


 

Live Flight TrackerFlight Track Log ✈ SWA3943 ✈ 12-Apr-2013 ✈ KBWI - KMHT

Flight Track Log - Related Links

Times and Time Zones

All times are in EDT time to prevent confusion due to time zone crossing. See the SWA3943 flight status page for this flight to view local times or setup timezone preferences in your user account.

Time Position Orientation Groundspeed Altitude Reporting Facility
EDT Latitude Longitude Course Direction KTS MPH feet Rate Location/Type
09:17PM 39.1333 -76.6000 284° West 233 268 3,500  Level Potomac TRACON
09:19PM 39.0772 -76.4419 115° Southeast 266 306 10,300 3,240 Climbing Washington Center
09:20PM 39.1194 -76.3272 65° Northeast 272 313 13,300 3,000 Climbing Washington Center
09:21PM 39.1556 -76.1964 70° East 333 383 16,300 3,240 Climbing Washington Center
09:22PM 39.1532 -76.5661 284° West  Level FlightAware Approximate
09:22PM 39.1772 -76.0281 81° East 401 461 19,800  Level Washington Center
09:23PM 39.2047 -75.8728 77° East 432 497 22,700 2,460 Climbing Washington Center
09:24PM 39.2925 -75.7497 47° Northeast 439 505 24,800 2,100 Climbing Washington Center
09:25PM 39.3906 -75.6264 44° Northeast 461 531 27,000 1,980 Climbing Washington Center
09:27PM 39.6078 -75.3492 44° Northeast 509 586 31,300 2,040 Climbing New York Center
09:28PM 39.7069 -75.2097 47° Northeast 514 592 33,700 1,800 Climbing New York Center
09:29PM 39.8019 -75.0672 49° Northeast 508 585 35,000 600 Climbing New York Center
09:30PM 39.9025 -74.9328 46° Northeast 508 585 35,000  Level New York Center
09:31PM 40.0450 -74.8517 24° Northeast 494 568 35,000  Level New York Center
09:32PM 40.1694 -74.8072 15° North 478 550 35,000  Level New York Center
09:33PM 40.3047 -74.7553 16° North 488 562 35,000  Level New York Center
09:34PM 40.4378 -74.7031 17° North 488 562 35,000  Level New York Center
09:36PM 40.7397 -74.5875 16° North 506 582 35,000  Level Boston Center
09:37PM 40.8761 -74.5372 16° North 506 582 35,000  Level Boston Center
09:38PM 41.0125 -74.4867 16° North 506 582 35,000 -360 Level Boston Center
09:39PM 41.1492 -74.4303 17° North 501 577 34,300 -900 Descending Boston Center
09:40PM 41.2897 -74.3767 16° North 507 583 33,300 -660 Descending Boston Center
09:42PM 41.4303 -74.3228 16° North 513 590 33,000 -180 Descending Boston Center
09:43PM 41.5853 -74.2664 15° North 524 603 33,000 -240 Level Boston Center
09:43PM 41.7281 -74.2119 16° North 524 603 32,600 -660 Descending Boston Center
09:44PM 41.8642 -74.1628 15° North 511 588 31,700 -960 Descending Boston Center
09:45PM 41.9886 -74.0572 32° Northeast 519 597 30,700 -960 Descending Boston Center
09:46PM 42.0703 -73.8775 58° Northeast 519 597 29,800 -1,440 Descending Boston Center
09:48PM 42.1539 -73.6975 58° Northeast 526 605 27,800 -2,460 Descending Boston Center
09:48PM 42.2325 -73.5308 57° Northeast 543 625 25,000 -2,460 Descending Boston Center
09:49PM 42.3069 -73.3692 58° Northeast 528 608 23,000 -2,040 Descending Boston Center
09:50PM 42.3789 -73.2103 58° Northeast 506 582 21,000 -1,440 Descending Boston Center
09:52PM 42.4383 -73.0786 59° Northeast 484 557 20,200 -900 Descending Boston Center
09:53PM 42.5056 -72.9272 59° Northeast 471 542 19,200 -660 Descending Boston Center
09:53PM 42.5750 -72.7642 60° Northeast 455 524 19,000 -300 Descending Boston Center
09:54PM 42.6192 -72.6236 67° East 449 517 18,700 -1,380 Descending Boston Center
09:56PM 42.6650 -72.4683 68° East 444 511 16,200 -2,520 Descending Boston Center
09:57PM 42.7089 -72.3186 68° East 432 497 13,700 -2,580 Descending Boston Center
09:57PM 42.7481 -72.1772 69° East 413 475 11,200 -1,920 Descending Boston Center
09:58PM 42.7914 -72.0269 69° East 389 448 10,000 -1,140 Descending Boston Center
09:59PM 42.8203 -71.9222 69° East 346 398 9,000 -1,260 Descending Boston Center
10:00PM 42.8319 -71.7975 83° East 302 348 7,500 -1,740 Descending Boston Center
10:02PM 42.7692 -71.7528 152° Southeast 236 272 5,500 -1,980 Descending Boston Center
10:02PM 42.7522 -71.6739 106° East 212 244 3,600 -1,680 Descending Boston Center
10:04PM 42.7853 -71.6283 45° Northeast 170 196 2,200 -840 Descending Boston Center
10:04PM 42.8244 -71.5794 42° Northeast 161 185 2,000 -60 Descending Boston Center
10:05PM 42.8533 -71.5453 41° Northeast 161 185 2,100 -240 Climbing Boston Center
10:07PM 42.8822 -71.5050 46° Northeast 145 167 1,600 -600 Descending Boston Center
10:08PM 42.9028 -71.4822 39° Northeast 120 138 1,000 -660 Descending Boston Center
10:09PM 42.9275 -71.4506 43° Northeast 115 132 400 9,120 Descending Boston Center
10:09PM 42.9503 -71.4189 45° Northeast 115 132 19,000 9,360 Climbing Boston Center
10:10PM 42.9708 -71.3903 46° Northeast 115 132 19,000  Level Boston Center
10:11PM 42.9914 -71.3614 46° Northeast 115 132 19,000  Level Boston Center
10:13PM 42.9328 -71.4358 222° Southwest  Level Estimated
10:20PM 42.9328 -71.4358 222° Southwest  Level Estimated
10:21PM 42.9328 -71.4358 222° Southwest  Level Estimated
10:22PM 42.9328 -71.4358 222° Southwest  Level Estimated
10:23PM 42.9328 -71.4358 222° Southwest  Level Estimated
10:24PM 42.9328 -71.4358 222° Southwest  Level Estimated
10:25PM 42.9328 -71.4358 222° Southwest  Level Estimated
10:26PM 42.9328 -71.4358 222° Southwest  Level Estimated
10:27PM 42.9328 -71.4358 222° Southwest  Level Estimated